createdAt,value
2022-11-21T00:01:19.951Z,9.12
2022-11-21T00:03:47.662Z,9.11
2022-11-21T00:06:17.430Z,9.11
2022-11-21T00:08:46.267Z,9.12
2022-11-21T00:11:14.464Z,9.12
2022-11-21T00:13:42.978Z,9.10
2022-11-21T00:16:14.012Z,9.09
2022-11-21T00:18:42.340Z,9.09
2022-11-21T00:21:13.634Z,9.07
2022-11-21T00:23:42.721Z,9.07
2022-11-21T00:26:12.272Z,8.93
2022-11-21T00:28:40.000Z,9.05
2022-11-21T00:31:08.287Z,9.05
2022-11-21T00:33:37.233Z,9.03
2022-11-21T00:36:09.539Z,9.03
2022-11-21T00:38:37.508Z,9.04
2022-11-21T00:41:07.170Z,9.04
2022-11-21T00:43:35.219Z,9.04
2022-11-21T00:46:03.302Z,9.03
2022-11-21T00:48:32.121Z,9.02
2022-11-21T00:51:00.458Z,9.02
2022-11-21T00:53:28.210Z,8.97
2022-11-21T00:55:55.952Z,8.99
2022-11-21T00:58:24.996Z,8.98
2022-11-21T01:00:52.670Z,8.99
2022-11-21T01:03:20.448Z,8.97
2022-11-21T01:05:48.134Z,8.98
2022-11-21T01:08:15.841Z,8.98
2022-11-21T01:10:43.513Z,8.96
2022-11-21T01:13:11.218Z,8.96
2022-11-21T01:15:40.237Z,8.97
2022-11-21T01:18:07.872Z,8.95
2022-11-21T01:20:35.556Z,8.97
2022-11-21T01:23:03.231Z,8.96
2022-11-21T01:25:30.870Z,8.97
2022-11-21T01:27:58.558Z,8.96
2022-11-21T01:30:26.269Z,8.95
2022-11-21T01:32:55.285Z,8.96
2022-11-21T01:35:23.001Z,8.97
2022-11-21T01:37:50.890Z,8.98
2022-11-21T01:40:18.747Z,8.97
2022-11-21T01:42:59.565Z,8.97
2022-11-21T01:45:56.186Z,8.94
2022-11-21T01:48:29.917Z,8.93
2022-11-21T01:51:02.167Z,8.93
2022-11-21T01:53:30.231Z,8.92
2022-11-21T01:55:58.052Z,8.93
2022-11-21T01:58:26.534Z,8.92
2022-11-21T02:00:54.785Z,8.92
2022-11-21T02:03:28.546Z,8.93
2022-11-21T02:05:57.151Z,8.92
2022-11-21T02:08:27.385Z,8.91
2022-11-21T02:11:05.105Z,8.90
2022-11-21T02:13:32.840Z,8.90
2022-11-21T02:16:00.588Z,8.87
2022-11-21T02:18:29.683Z,8.90
2022-11-21T02:21:08.010Z,8.84
2022-11-21T02:23:41.556Z,8.80
2022-11-21T02:26:11.884Z,8.88
2022-11-21T02:28:39.585Z,8.87
2022-11-21T02:31:07.261Z,8.85
2022-11-21T02:33:35.262Z,8.87
2022-11-21T02:36:04.088Z,8.78
2022-11-21T02:38:36.217Z,8.86
2022-11-21T02:41:09.589Z,8.84
2022-11-21T02:43:43.563Z,8.84
2022-11-21T02:46:11.406Z,8.85
2022-11-21T02:48:39.764Z,8.75
2022-11-21T02:51:07.722Z,8.86
2022-11-21T02:53:35.427Z,8.84
2022-11-21T02:56:03.091Z,8.82
2022-11-21T02:58:31.085Z,8.82
2022-11-21T03:01:00.199Z,8.81
2022-11-21T03:03:28.007Z,8.83
2022-11-21T03:05:56.852Z,8.84
2022-11-21T03:08:24.487Z,8.77
2022-11-21T03:10:52.129Z,8.81
2022-11-21T03:13:20.378Z,8.81
2022-11-21T03:15:48.033Z,8.81
2022-11-21T03:18:17.180Z,8.78
2022-11-21T03:20:44.807Z,8.79
2022-11-21T03:23:13.850Z,8.78
2022-11-21T03:25:41.542Z,8.81
2022-11-21T03:28:09.254Z,8.80
2022-11-21T03:30:37.029Z,8.79
2022-11-21T03:33:04.815Z,8.80
2022-11-21T03:35:33.840Z,8.80
2022-11-21T03:38:01.536Z,8.81
2022-11-21T03:40:29.218Z,8.81
2022-11-21T03:42:56.932Z,8.78
2022-11-21T03:45:24.645Z,8.80
2022-11-21T03:47:52.346Z,8.79
2022-11-21T03:50:21.595Z,8.78
2022-11-21T03:52:50.641Z,8.80
2022-11-21T03:55:18.325Z,8.80
2022-11-21T03:57:45.980Z,8.78
2022-11-21T04:00:15.187Z,8.78
2022-11-21T04:02:42.867Z,8.77
2022-11-21T04:05:10.789Z,8.77
2022-11-21T04:07:38.509Z,8.78
2022-11-21T04:10:08.430Z,8.77
2022-11-21T04:12:36.220Z,8.76
2022-11-21T04:15:06.114Z,8.78
2022-11-21T04:17:37.049Z,8.76
2022-11-21T04:20:05.333Z,8.75
2022-11-21T04:22:33.002Z,8.77
2022-11-21T04:25:00.694Z,8.76
2022-11-21T04:27:29.680Z,8.75
2022-11-21T04:29:57.346Z,8.75
2022-11-21T04:32:25.026Z,8.74
2022-11-21T04:34:52.708Z,8.74
2022-11-21T04:37:20.427Z,8.70
2022-11-21T04:39:48.133Z,8.74
2022-11-21T04:42:15.807Z,8.74
2022-11-21T04:44:44.842Z,8.73
2022-11-21T04:47:12.502Z,8.72
2022-11-21T04:49:40.209Z,8.71
2022-11-21T04:52:08.019Z,8.70
2022-11-21T04:54:35.703Z,8.70
2022-11-21T04:57:03.351Z,8.72
2022-11-21T04:59:31.056Z,8.70
2022-11-21T05:02:00.116Z,8.68
2022-11-21T05:04:28.163Z,8.68
2022-11-21T05:06:56.036Z,8.67
2022-11-21T05:09:23.697Z,8.65
2022-11-21T05:12:08.735Z,8.65
2022-11-21T05:14:36.405Z,8.65
2022-11-21T05:17:05.392Z,8.65
2022-11-21T05:19:33.074Z,8.62
2022-11-21T05:22:00.725Z,8.66
2022-11-21T05:24:28.591Z,8.67
2022-11-21T05:26:56.547Z,8.65
2022-11-21T05:29:28.071Z,8.66
2022-11-21T05:31:56.066Z,8.63
2022-11-21T05:34:25.253Z,8.64
2022-11-21T05:36:57.068Z,8.64
2022-11-21T05:39:25.456Z,8.64
2022-11-21T05:41:55.270Z,8.65
2022-11-21T05:44:25.279Z,8.64
2022-11-21T05:46:53.172Z,8.64
2022-11-21T05:49:21.302Z,8.64
2022-11-21T05:51:50.484Z,8.64
2022-11-21T05:54:18.251Z,8.64
2022-11-21T05:56:45.968Z,8.56
2022-11-21T05:59:13.773Z,8.64
2022-11-21T06:01:59.296Z,8.66
2022-11-21T06:04:27.382Z,8.66
2022-11-21T06:06:56.545Z,8.67
2022-11-21T06:09:24.219Z,8.69
2022-11-21T06:11:51.891Z,8.66
2022-11-21T06:14:19.527Z,8.66
2022-11-21T06:16:47.277Z,8.66
2022-11-21T06:19:15.005Z,8.65
2022-11-21T06:21:42.714Z,8.58
2022-11-21T06:24:12.178Z,8.68
2022-11-21T06:26:39.865Z,8.67
2022-11-21T06:29:07.557Z,8.69
2022-11-21T06:31:35.236Z,8.67
2022-11-21T06:34:03.268Z,8.64
2022-11-21T06:36:31.006Z,8.63
2022-11-21T06:38:58.677Z,8.63
2022-11-21T06:41:30.248Z,8.63
2022-11-21T06:44:00.720Z,8.64
2022-11-21T06:46:28.809Z,8.67
2022-11-21T06:48:56.518Z,8.67
2022-11-21T06:51:26.026Z,8.66
2022-11-21T06:53:55.806Z,8.69
2022-11-21T06:56:23.942Z,8.68
2022-11-21T06:58:53.033Z,8.68
2022-11-21T07:01:20.813Z,8.67
2022-11-21T07:03:48.853Z,8.65
2022-11-21T07:06:16.589Z,8.69
2022-11-21T07:08:44.286Z,8.69
2022-11-21T07:11:29.041Z,8.66
2022-11-21T07:13:58.090Z,8.68
2022-11-21T07:16:26.382Z,8.69
2022-11-21T07:18:54.289Z,8.70
2022-11-21T07:21:21.953Z,8.65
2022-11-21T07:23:49.678Z,8.63
2022-11-21T07:26:17.443Z,8.65
2022-11-21T07:28:45.144Z,8.66
2022-11-21T07:31:14.480Z,8.69
2022-11-21T07:33:44.188Z,8.67
2022-11-21T07:36:13.540Z,8.66
2022-11-21T07:38:42.427Z,8.70
2022-11-21T07:41:10.308Z,8.68
2022-11-21T07:43:37.986Z,8.67
2022-11-21T07:46:05.737Z,8.68
2022-11-21T07:48:34.738Z,8.67
2022-11-21T07:51:05.116Z,8.67
2022-11-21T07:53:32.904Z,8.68
2022-11-21T07:56:00.824Z,8.67
2022-11-21T07:58:28.616Z,8.70
2022-11-21T08:00:56.290Z,8.72
2022-11-21T08:03:25.306Z,8.74
2022-11-21T08:05:54.336Z,8.76
2022-11-21T08:08:21.984Z,8.76
2022-11-21T08:10:51.376Z,8.74
2022-11-21T08:13:19.024Z,8.73
2022-11-21T08:15:46.678Z,8.73
2022-11-21T08:18:16.309Z,8.73
2022-11-21T08:20:44.226Z,8.73
2022-11-21T08:23:13.254Z,8.70
2022-11-21T08:25:42.117Z,8.71
2022-11-21T08:28:12.286Z,8.70
2022-11-21T08:30:41.046Z,8.71
2022-11-21T08:33:08.825Z,8.69
2022-11-21T08:35:37.625Z,8.70
2022-11-21T08:38:05.823Z,8.69
2022-11-21T08:40:35.950Z,8.69
2022-11-21T08:43:05.719Z,8.70
2022-11-21T08:45:34.613Z,8.69
2022-11-21T08:48:02.998Z,8.73
2022-11-21T08:50:31.962Z,8.82
2022-11-21T08:53:01.626Z,8.99
2022-11-21T08:55:29.397Z,9.16
2022-11-21T08:57:58.436Z,9.33
2022-11-21T09:00:26.384Z,9.48
2022-11-21T09:02:54.113Z,9.65
2022-11-21T09:05:21.932Z,9.81
2022-11-21T09:07:49.645Z,9.96
2022-11-21T09:10:17.441Z,10.08
2022-11-21T09:12:45.136Z,10.28
2022-11-21T09:15:31.642Z,10.41
2022-11-21T09:18:04.958Z,10.51
2022-11-21T09:20:34.064Z,10.59
2022-11-21T09:23:05.435Z,10.67
2022-11-21T09:25:33.126Z,10.71
2022-11-21T09:28:01.558Z,10.71
2022-11-21T09:30:30.724Z,10.80
2022-11-21T09:33:01.327Z,10.82
2022-11-21T09:35:29.263Z,10.81
2022-11-21T09:37:57.085Z,10.86
2022-11-21T09:40:25.458Z,10.88
2022-11-21T09:43:08.163Z,10.89
2022-11-21T09:45:45.853Z,10.92
2022-11-21T09:48:17.005Z,10.94
2022-11-21T09:50:53.602Z,10.99
2022-11-21T09:53:25.353Z,11.06
2022-11-21T09:55:59.057Z,11.02
2022-11-21T09:58:32.572Z,10.95
2022-11-21T10:01:02.057Z,10.76
2022-11-21T10:03:32.701Z,10.57
2022-11-21T10:06:04.878Z,10.39
2022-11-21T10:08:42.676Z,10.22
2022-11-21T10:11:22.504Z,10.11
2022-11-21T10:14:14.085Z,10.01
2022-11-21T10:16:50.657Z,9.95
2022-11-21T10:19:48.849Z,9.92
2022-11-21T10:22:38.249Z,9.87
2022-11-21T10:25:14.694Z,9.84
2022-11-21T10:27:48.493Z,9.79
2022-11-21T10:30:18.379Z,9.76
2022-11-21T10:32:50.725Z,9.76
2022-11-21T10:35:22.976Z,9.74
2022-11-21T10:37:53.491Z,9.75
2022-11-21T10:40:38.039Z,9.69
2022-11-21T10:43:33.393Z,9.72
2022-11-21T10:46:01.067Z,9.70
2022-11-21T10:48:30.137Z,9.73
2022-11-21T10:51:20.019Z,9.74
2022-11-21T10:54:08.091Z,9.72
2022-11-21T10:56:38.082Z,9.73
2022-11-21T10:59:25.680Z,9.71
2022-11-21T11:01:57.981Z,9.74
2022-11-21T11:04:43.954Z,9.74
2022-11-21T11:07:25.736Z,9.75
2022-11-21T11:09:54.436Z,9.75
2022-11-21T11:12:47.095Z,9.70
2022-11-21T11:15:20.275Z,9.75
2022-11-21T11:17:52.726Z,9.74
2022-11-21T11:20:35.559Z,9.78
2022-11-21T11:23:17.615Z,9.78
2022-11-21T11:25:49.814Z,9.78
2022-11-21T11:28:19.265Z,9.79
2022-11-21T11:30:48.277Z,9.78
2022-11-21T11:33:36.689Z,9.78
2022-11-21T11:36:13.921Z,9.82
2022-11-21T11:38:45.060Z,9.84
2022-11-21T11:41:23.721Z,9.86
2022-11-21T11:44:21.963Z,9.86
2022-11-21T11:47:17.974Z,9.86
2022-11-21T11:50:07.421Z,9.90
2022-11-21T11:52:44.345Z,9.90
2022-11-21T11:55:19.910Z,9.88
2022-11-21T11:57:49.301Z,9.93
2022-11-21T12:00:28.172Z,9.91
2022-11-21T12:03:02.326Z,9.92
2022-11-21T12:05:31.898Z,9.94
2022-11-21T12:11:26.120Z,9.93
2022-11-21T12:13:55.661Z,9.92
2022-11-21T12:16:27.869Z,9.93
2022-11-21T12:19:01.030Z,9.95
2022-11-21T12:21:29.957Z,9.95
2022-11-21T12:23:59.938Z,9.96
2022-11-21T12:26:37.438Z,10.03
2022-11-21T12:29:17.013Z,10.18
2022-11-21T12:32:05.338Z,10.39
2022-11-21T12:34:48.770Z,10.60
2022-11-21T12:37:29.256Z,10.80
2022-11-21T12:40:05.354Z,11.01
2022-11-21T12:42:51.320Z,11.06
2022-11-21T12:45:32.277Z,11.00
2022-11-21T12:48:40.164Z,10.90
2022-11-21T12:51:54.249Z,10.77
2022-11-21T12:54:42.064Z,10.65
2022-11-21T12:57:13.061Z,10.59
2022-11-21T12:59:51.754Z,10.55
2022-11-21T13:02:29.861Z,10.51
2022-11-21T13:04:59.335Z,10.49
2022-11-21T13:07:30.777Z,10.47
2022-11-21T13:10:01.766Z,10.41
2022-11-21T13:12:39.609Z,10.39
2022-11-21T13:15:19.369Z,10.36
2022-11-21T13:17:53.009Z,10.33
2022-11-21T13:20:28.331Z,10.30
2022-11-21T13:22:58.576Z,10.27
2022-11-21T13:25:48.841Z,10.28
2022-11-21T13:28:37.580Z,10.23
2022-11-21T13:31:29.118Z,10.22
2022-11-21T13:33:57.106Z,10.22
2022-11-21T13:36:52.037Z,10.22
2022-11-21T13:39:31.046Z,10.22
2022-11-21T13:42:30.621Z,10.22
2022-11-21T13:45:20.684Z,10.21
2022-11-21T13:48:18.672Z,10.20
2022-11-21T13:51:28.581Z,10.20
2022-11-21T13:54:19.228Z,10.18
2022-11-21T13:57:05.807Z,10.17
2022-11-21T13:59:52.294Z,10.19
2022-11-21T14:02:44.841Z,10.29
2022-11-21T14:05:35.210Z,10.48
2022-11-21T14:08:15.332Z,10.66
2022-11-21T14:10:43.120Z,10.87
2022-11-21T14:13:24.305Z,11.05
2022-11-21T14:16:06.379Z,11.19
2022-11-21T14:18:39.436Z,11.17
2022-11-21T14:21:09.151Z,11.08
2022-11-21T14:23:37.647Z,10.98
2022-11-21T14:26:12.573Z,10.88
2022-11-21T14:28:40.237Z,10.77
2022-11-21T14:31:09.894Z,10.68
2022-11-21T14:33:40.024Z,10.55
2022-11-21T14:36:10.686Z,10.57
2022-11-21T14:38:43.760Z,10.52
2022-11-21T14:41:29.745Z,10.50
2022-11-21T14:44:15.146Z,10.49
2022-11-21T14:46:43.883Z,10.47
2022-11-21T14:49:20.624Z,10.44
2022-11-21T14:51:50.972Z,10.42
2022-11-21T14:54:20.830Z,10.39
2022-11-21T14:56:50.265Z,10.36
2022-11-21T14:59:25.857Z,10.35
2022-11-21T15:01:58.533Z,10.35
2022-11-21T15:04:32.298Z,10.33
2022-11-21T15:07:00.663Z,10.31
2022-11-21T15:10:26.154Z,10.31
2022-11-21T15:12:24.750Z,10.40
2022-11-21T15:14:55.877Z,10.55
2022-11-21T15:17:25.469Z,10.71
2022-11-21T15:20:19.336Z,10.91
2022-11-21T15:22:48.922Z,11.08
2022-11-21T15:25:20.142Z,11.24
2022-11-21T15:27:49.096Z,11.39
2022-11-21T15:30:30.782Z,11.44
2022-11-21T15:33:10.287Z,11.36
2022-11-21T15:35:47.434Z,11.20
2022-11-21T15:38:34.378Z,11.02
2022-11-21T15:41:04.837Z,10.88
2022-11-21T15:43:41.704Z,10.80
2022-11-21T15:46:15.035Z,10.74
2022-11-21T15:48:42.809Z,10.67
2022-11-21T15:51:12.340Z,10.62
2022-11-21T15:53:40.363Z,10.57
2022-11-21T15:56:08.395Z,10.53
2022-11-21T15:58:36.058Z,10.49
2022-11-21T16:01:03.868Z,10.47
2022-11-21T16:03:31.638Z,10.44
2022-11-21T16:05:59.311Z,10.35
2022-11-21T16:08:28.325Z,10.41
2022-11-21T16:10:56.023Z,10.39
2022-11-21T16:13:23.732Z,10.36
2022-11-21T16:15:51.376Z,10.33
2022-11-21T16:18:19.022Z,10.30
2022-11-21T16:20:46.885Z,10.30
2022-11-21T16:23:14.597Z,10.31
2022-11-21T16:25:53.752Z,10.29
2022-11-21T16:28:21.464Z,10.27
2022-11-21T16:30:49.191Z,10.25
2022-11-21T16:33:17.219Z,10.26
2022-11-21T16:35:44.934Z,10.25
2022-11-21T16:38:13.174Z,10.25
2022-11-21T16:40:40.853Z,10.24
2022-11-21T16:43:12.398Z,10.21
2022-11-21T16:45:40.458Z,10.16
2022-11-21T16:48:08.186Z,10.19
2022-11-21T16:50:35.872Z,10.22
2022-11-21T16:53:03.536Z,10.21
2022-11-21T16:55:31.630Z,10.19
2022-11-21T16:57:59.369Z,10.20
2022-11-21T17:00:29.264Z,10.20
2022-11-21T17:02:58.052Z,10.19
2022-11-21T17:05:25.709Z,10.18
2022-11-21T17:07:53.520Z,10.13
2022-11-21T17:10:21.259Z,10.17
2022-11-21T17:12:48.977Z,10.17
2022-11-21T17:15:16.765Z,10.16
2022-11-21T17:17:45.808Z,10.16
2022-11-21T17:20:13.685Z,10.14
2022-11-21T17:22:41.383Z,10.11
2022-11-21T17:25:09.933Z,10.13
2022-11-21T17:27:37.650Z,10.12
2022-11-21T17:30:06.200Z,10.12
2022-11-21T17:32:35.356Z,10.11
2022-11-21T17:35:05.030Z,10.10
2022-11-21T17:37:32.718Z,10.10
2022-11-21T17:40:00.414Z,10.11
2022-11-21T17:42:28.370Z,10.11
2022-11-21T17:44:56.066Z,10.10
2022-11-21T17:47:23.803Z,10.08
2022-11-21T17:49:51.445Z,10.10
2022-11-21T17:52:20.448Z,10.11
2022-11-21T17:54:48.143Z,10.11
2022-11-21T17:57:15.805Z,10.12
2022-11-21T17:59:45.033Z,10.17
2022-11-21T18:02:13.093Z,10.23
2022-11-21T18:04:41.110Z,10.24
2022-11-21T18:07:08.839Z,10.21
2022-11-21T18:09:38.049Z,10.21
2022-11-21T18:12:06.427Z,10.19
2022-11-21T18:14:34.062Z,10.19
2022-11-21T18:17:01.810Z,10.17
2022-11-21T18:19:29.667Z,10.15
2022-11-21T18:21:57.388Z,10.15
2022-11-21T18:24:25.024Z,10.14
2022-11-21T18:26:54.074Z,10.12
2022-11-21T18:29:38.241Z,10.14
2022-11-21T18:32:06.971Z,10.15
2022-11-21T18:34:34.748Z,10.14
2022-11-21T18:37:02.585Z,10.14
2022-11-21T18:39:30.563Z,10.11
2022-11-21T18:41:59.861Z,10.10
2022-11-21T18:44:27.531Z,10.11
2022-11-21T18:46:55.402Z,10.11
2022-11-21T18:49:23.113Z,10.10
2022-11-21T18:51:51.067Z,10.09
2022-11-21T18:54:18.745Z,10.10
2022-11-21T18:56:47.338Z,10.09
2022-11-21T18:59:16.609Z,10.08
2022-11-21T19:01:44.837Z,10.07
2022-11-21T19:04:12.605Z,10.09
2022-11-21T19:06:40.306Z,10.07
2022-11-21T19:09:08.333Z,10.14
2022-11-21T19:11:36.068Z,10.16
2022-11-21T19:14:03.921Z,10.18
2022-11-21T19:16:34.322Z,10.19
2022-11-21T19:21:50.274Z,10.20
2022-11-21T19:24:19.481Z,10.20
2022-11-21T19:26:47.344Z,10.22
2022-11-21T19:29:15.006Z,10.20
2022-11-21T19:31:45.974Z,10.21
2022-11-21T19:34:14.178Z,10.20
2022-11-21T19:36:42.250Z,10.22
2022-11-21T19:39:09.987Z,10.22
2022-11-21T19:41:37.954Z,10.25
2022-11-21T19:44:05.717Z,10.27
2022-11-21T19:46:35.500Z,10.28
2022-11-21T19:49:05.638Z,10.30
2022-11-21T19:51:35.641Z,10.28
2022-11-21T19:54:03.675Z,10.27
2022-11-21T19:56:31.392Z,10.28
2022-11-21T19:58:59.700Z,10.26
2022-11-21T20:01:29.188Z,10.29
2022-11-21T20:03:58.645Z,10.29
2022-11-21T20:06:29.347Z,10.27
2022-11-21T20:08:58.651Z,10.17
2022-11-21T20:11:28.127Z,10.24
2022-11-21T20:13:56.536Z,10.23
2022-11-21T20:16:26.081Z,10.23
2022-11-21T20:18:55.415Z,10.22
2022-11-21T20:21:23.093Z,10.20
2022-11-21T20:23:52.432Z,10.21
2022-11-21T20:26:21.977Z,10.21
2022-11-21T20:28:49.811Z,10.20
2022-11-21T20:31:19.769Z,10.17
2022-11-21T20:33:49.692Z,10.18
2022-11-21T20:36:19.520Z,10.18
2022-11-21T20:38:53.827Z,10.16
2022-11-21T20:41:22.884Z,10.14
2022-11-21T20:46:42.374Z,10.13
2022-11-21T20:49:10.330Z,10.13
2022-11-21T20:54:27.345Z,10.11
2022-11-21T20:56:55.289Z,10.14
2022-11-21T20:59:23.334Z,10.12
2022-11-21T21:01:51.074Z,10.10
2022-11-21T21:04:18.922Z,10.10
2022-11-21T21:06:46.593Z,10.07
2022-11-21T21:09:14.300Z,10.07
2022-11-21T21:11:52.598Z,10.06
2022-11-21T21:14:21.400Z,10.06
2022-11-21T21:16:49.757Z,10.03
2022-11-21T21:19:17.755Z,10.03
2022-11-21T21:21:45.538Z,10.02
2022-11-21T21:24:13.826Z,10.04
2022-11-21T21:26:44.514Z,10.02
2022-11-21T21:29:13.810Z,10.02
2022-11-21T21:31:46.800Z,10.02
2022-11-21T21:34:18.086Z,10.04
2022-11-21T21:36:45.865Z,10.04
2022-11-21T21:39:13.526Z,10.02
2022-11-21T21:41:44.402Z,10.01
2022-11-21T21:44:14.053Z,10.01
2022-11-21T21:46:41.879Z,10.01
2022-11-21T21:49:09.522Z,10.02
2022-11-21T21:51:37.549Z,10.03
2022-11-21T21:54:06.298Z,10.02
2022-11-21T21:56:34.665Z,10.02
2022-11-21T21:59:02.475Z,10.01
2022-11-21T22:01:32.991Z,9.98
2022-11-21T22:04:02.608Z,10.00
2022-11-21T22:06:33.301Z,10.00
2022-11-21T22:09:01.403Z,9.96
2022-11-21T22:11:30.863Z,9.98
2022-11-21T22:14:00.381Z,9.98
2022-11-21T22:16:28.482Z,10.00
2022-11-21T22:18:57.998Z,9.98
2022-11-21T22:21:28.017Z,9.98
2022-11-21T22:24:23.562Z,9.97
2022-11-21T22:26:46.134Z,9.96
2022-11-21T22:29:13.826Z,9.96
2022-11-21T22:31:41.498Z,9.96
2022-11-21T22:34:12.460Z,9.96
2022-11-21T22:36:40.158Z,9.93
2022-11-21T22:39:07.992Z,9.92
2022-11-21T22:41:35.743Z,9.90
2022-11-21T22:44:03.471Z,9.91
2022-11-21T22:46:31.970Z,9.92
2022-11-21T22:49:00.155Z,9.92
2022-11-21T22:51:30.243Z,9.91
2022-11-21T22:53:58.429Z,9.91
2022-11-21T22:56:27.083Z,9.89
2022-11-21T22:58:56.090Z,9.90
2022-11-21T23:01:26.329Z,9.93
2022-11-21T23:03:55.483Z,9.93
2022-11-21T23:06:24.706Z,9.92
2022-11-21T23:08:55.429Z,9.91
2022-11-21T23:11:26.027Z,9.91
2022-11-21T23:13:54.688Z,9.91
2022-11-21T23:16:23.091Z,9.91
2022-11-21T23:18:53.628Z,9.91
2022-11-21T23:21:21.994Z,9.90
2022-11-21T23:23:49.695Z,9.90
2022-11-21T23:26:18.732Z,9.89
2022-11-21T23:28:46.457Z,9.88
2022-11-21T23:31:14.107Z,9.88
2022-11-21T23:33:41.903Z,9.88
2022-11-21T23:36:09.638Z,9.90
2022-11-21T23:38:37.586Z,9.90
2022-11-21T23:41:05.470Z,9.89
2022-11-21T23:43:34.745Z,9.89
2022-11-21T23:46:02.476Z,9.89
2022-11-21T23:48:30.226Z,9.89
2022-11-21T23:50:58.010Z,9.88
2022-11-21T23:53:25.730Z,9.87
2022-11-21T23:55:53.463Z,9.89
2022-11-21T23:58:21.229Z,9.90
